Time;durP1;ratioP1;P1;durP2;ratioP2;P2;SDS_P1;SDS_P2;PMS_P1;PMS_P2;Temp;Humidity;BMP_temperature;BMP_pressure;BME280_temperature;BME280_humidity;BME280_pressure;Samples;Min_cycle;Max_cycle;Signal;HPM_P1;HPM_P2
2021/07/09 00:02:22;;;;;;;7.95;6.65;;;17.50;99.90;;;;;;5025411;28;20049;-81
2021/07/09 00:04:48;;;;;;;7.95;6.43;;;17.40;99.90;;;;;;5009399;28;20049;-81
2021/07/09 00:07:14;;;;;;;8.63;7.25;;;17.40;99.90;;;;;;5009260;28;20050;-81
2021/07/09 00:09:39;;;;;;;8.32;6.65;;;17.40;99.90;;;;;;5009345;28;20116;-81
2021/07/09 00:12:05;;;;;;;11.10;6.63;;;17.30;99.90;;;;;;5026830;28;20061;-81
2021/07/09 00:14:36;;;;;;;8.10;7.13;;;17.30;99.90;;;;;;5025676;28;20375;-81
2021/07/09 00:17:02;;;;;;;10.82;6.88;;;17.30;99.90;;;;;;5025238;28;20371;-81
2021/07/09 00:19:28;;;;;;;10.93;8.52;;;17.20;99.90;;;;;;5025478;28;20068;-83
2021/07/09 00:21:53;;;;;;;8.05;6.82;;;17.20;99.90;;;;;;5025150;28;20034;-81
2021/07/09 00:24:19;;;;;;;12.65;8.00;;;17.10;99.90;;;;;;5025252;28;20462;-81
2021/07/09 00:26:45;;;;;;;7.68;6.15;;;17.20;99.90;;;;;;5024889;28;20037;-81
2021/07/09 00:29:11;;;;;;;9.82;7.65;;;17.20;99.90;;;;;;5025104;28;20033;-80
2021/07/09 00:31:36;;;;;;;9.18;8.15;;;17.20;99.90;;;;;;5024731;28;20088;-82
2021/07/09 00:34:05;;;;;;;9.27;8.02;;;17.20;99.90;;;;;;5025016;28;20041;-81
2021/07/09 00:36:31;;;;;;;7.38;6.05;;;17.20;99.90;;;;;;5008511;28;20457;-81
2021/07/09 00:38:57;;;;;;;8.38;6.85;;;17.20;99.90;;;;;;5024967;28;20033;-81
2021/07/09 00:41:22;;;;;;;7.35;5.90;;;17.20;99.90;;;;;;5008511;28;20022;-81
2021/07/09 00:43:48;;;;;;;7.85;6.05;;;17.20;99.90;;;;;;5024823;28;20486;-81
2021/07/09 00:46:38;;;;;;;9.27;7.47;;;17.20;99.90;;;;;;5024699;28;20030;-81
2021/07/09 00:49:08;;;;;;;8.25;6.75;;;17.20;99.90;;;;;;4968051;28;20042;-82
2021/07/09 00:51:35;;;;;;;7.10;5.80;;;17.10;99.90;;;;;;4968185;28;20111;-81
2021/07/09 00:54:01;;;;;;;7.38;6.05;;;17.10;99.90;;;;;;4984342;28;20057;-81
2021/07/09 00:56:28;;;;;;;6.05;5.45;;;17.10;99.90;;;;;;4973668;28;20034;-81
2021/07/09 00:58:54;;;;;;;6.55;5.32;;;17.10;99.90;;;;;;4968003;28;20027;-82
2021/07/09 01:01:20;;;;;;;7.53;4.82;;;17.10;99.90;;;;;;4984214;28;20045;-81
2021/07/09 01:03:46;;;;;;;5.65;4.30;;;17.10;99.90;;;;;;4983426;28;20038;-81
2021/07/09 01:06:15;;;;;;;5.03;4.50;;;17.10;99.90;;;;;;4967905;28;20039;-81
2021/07/09 01:08:41;;;;;;;5.20;4.47;;;17.10;99.90;;;;;;4967871;28;20097;-81
2021/07/09 01:11:07;;;;;;;6.80;5.35;;;17.10;99.90;;;;;;4984153;28;20121;-81
2021/07/09 01:13:33;;;;;;;5.07;4.57;;;17.10;99.90;;;;;;4967832;28;20042;-81
2021/07/09 01:15:59;;;;;;;5.35;4.75;;;17.00;99.90;;;;;;4983923;28;20065;-81
2021/07/09 01:18:25;;;;;;;5.65;5.00;;;16.90;99.90;;;;;;4983890;28;20031;-81
2021/07/09 01:20:51;;;;;;;4.80;4.30;;;16.90;99.90;;;;;;4984173;28;20042;-81
2021/07/09 01:23:19;;;;;;;5.32;4.38;;;16.80;99.90;;;;;;4983919;28;20069;-81
2021/07/09 01:25:46;;;;;;;5.35;4.72;;;16.90;99.90;;;;;;4987020;28;20052;-81
2021/07/09 01:28:11;;;;;;;5.82;5.03;;;16.70;99.90;;;;;;5024088;28;20116;-82
2021/07/09 01:30:38;;;;;;;6.18;4.85;;;16.70;99.90;;;;;;5024058;28;20474;-81
2021/07/09 01:33:04;;;;;;;5.72;4.60;;;16.70;99.90;;;;;;5025574;28;20030;-81
2021/07/09 01:35:31;;;;;;;5.05;4.55;;;16.70;99.90;;;;;;5025448;28;20093;-81
2021/07/09 01:38:01;;;;;;;6.68;5.13;;;16.50;99.90;;;;;;5007544;28;20034;-81
2021/07/09 01:40:28;;;;;;;6.72;4.70;;;16.40;99.90;;;;;;5007705;28;20038;-81
2021/07/09 01:42:55;;;;;;;5.90;4.15;;;16.30;99.90;;;;;;5024092;28;20458;-80
2021/07/09 01:45:21;;;;;;;6.85;5.80;;;16.30;99.90;;;;;;5007724;28;20045;-81
2021/07/09 01:47:48;;;;;;;7.25;5.53;;;16.20;99.90;;;;;;5009105;28;20041;-81
2021/07/09 01:50:13;;;;;;;6.05;5.38;;;16.10;99.90;;;;;;5027234;28;20477;-81
2021/07/09 01:52:39;;;;;;;6.70;5.85;;;16.10;99.90;;;;;;5027070;28;20076;-80
2021/07/09 01:55:06;;;;;;;6.95;5.45;;;16.10;99.90;;;;;;5010653;28;20036;-81
2021/07/09 01:57:32;;;;;;;9.43;6.30;;;16.10;99.90;;;;;;5027283;28;20057;-81
2021/07/09 01:59:59;;;;;;;9.32;6.22;;;16.20;99.90;;;;;;5010890;28;20033;-81
2021/07/09 02:02:25;;;;;;;6.78;5.30;;;16.10;99.90;;;;;;5027219;28;20026;-81
2021/07/09 02:04:56;;;;;;;9.15;6.35;;;16.10;99.90;;;;;;5027087;28;20140;-81
2021/07/09 02:07:23;;;;;;;9.32;6.05;;;16.00;99.90;;;;;;5010839;28;20055;-81
2021/07/09 02:09:54;;;;;;;6.97;5.45;;;15.90;99.90;;;;;;5027016;28;20053;-80
2021/07/09 02:12:23;;;;;;;6.07;5.00;;;16.00;99.90;;;;;;5010720;28;20504;-81
2021/07/09 02:14:49;;;;;;;7.03;6.05;;;15.90;99.90;;;;;;5026957;28;20026;-81
2021/07/09 02:17:17;;;;;;;6.22;5.18;;;16.00;99.90;;;;;;5030275;28;20037;-81
2021/07/09 02:19:43;;;;;;;7.10;5.90;;;15.90;99.90;;;;;;5014017;28;20030;-80
2021/07/09 02:22:11;;;;;;;7.28;4.82;;;15.90;99.90;;;;;;5030650;28;20033;-81
2021/07/09 02:24:39;;;;;;;8.57;6.18;;;15.90;99.90;;;;;;5014123;28;20093;-80
2021/07/09 02:27:06;;;;;;;7.47;5.55;;;15.90;99.90;;;;;;5030364;28;20312;-81
2021/07/09 02:29:34;;;;;;;9.35;6.15;;;15.90;99.90;;;;;;5030590;28;20041;-81
2021/07/09 02:32:01;;;;;;;9.30;5.97;;;15.90;99.90;;;;;;5014230;28;20030;-81
2021/07/09 02:34:28;;;;;;;8.57;6.85;;;15.80;99.90;;;;;;5030202;28;20040;-81
2021/07/09 02:36:54;;;;;;;7.82;5.97;;;15.80;99.90;;;;;;5030551;28;20029;-81
2021/07/09 02:39:20;;;;;;;9.48;5.80;;;15.80;99.90;;;;;;5030267;28;20060;-80
2021/07/09 02:41:46;;;;;;;8.73;6.10;;;15.80;99.90;;;;;;5030254;28;20030;-81
2021/07/09 02:44:12;;;;;;;9.23;6.88;;;15.80;99.90;;;;;;5030163;28;20053;-81
2021/07/09 02:46:58;;;;;;;9.38;6.38;;;15.90;99.90;;;;;;5030110;28;20033;-80
2021/07/09 02:49:23;;;;;;;9.13;6.50;;;15.90;99.90;;;;;;4950542;29;20559;-81
2021/07/09 02:51:49;;;;;;;8.98;5.45;;;15.80;99.90;;;;;;4967118;29;20039;-81
2021/07/09 02:54:16;;;;;;;12.40;6.78;;;15.70;99.90;;;;;;4935021;29;20051;-81
2021/07/09 02:56:41;;;;;;;7.90;5.90;;;15.70;99.90;;;;;;4950841;29;20031;-81
2021/07/09 02:59:07;;;;;;;7.32;5.53;;;15.80;99.90;;;;;;4950963;29;20054;-81
2021/07/09 03:01:33;;;;;;;6.95;5.30;;;15.80;99.90;;;;;;4950836;29;20043;-80
2021/07/09 03:03:59;;;;;;;10.32;7.10;;;15.80;99.90;;;;;;4950910;29;20143;-80
2021/07/09 03:06:25;;;;;;;10.63;6.68;;;15.80;99.90;;;;;;4934919;29;20027;-81
2021/07/09 03:08:50;;;;;;;8.43;5.53;;;15.80;99.90;;;;;;4934748;29;20062;-81
2021/07/09 03:11:17;;;;;;;9.52;6.68;;;15.70;99.90;;;;;;4935007;29;20039;-81
2021/07/09 03:13:43;;;;;;;10.13;6.70;;;15.70;99.90;;;;;;4950667;29;20048;-80
2021/07/09 03:16:09;;;;;;;10.00;6.78;;;15.70;99.90;;;;;;4950472;29;20042;-80
2021/07/09 03:18:34;;;;;;;9.48;7.30;;;15.70;99.90;;;;;;4950635;29;20043;-81
2021/07/09 03:21:00;;;;;;;8.50;6.10;;;15.70;99.90;;;;;;4950330;29;20135;-81
2021/07/09 03:23:26;;;;;;;11.25;6.80;;;15.70;99.90;;;;;;4966701;29;20051;-81
2021/07/09 03:25:51;;;;;;;10.70;7.20;;;15.70;99.90;;;;;;4962211;28;20074;-81
2021/07/09 03:28:17;;;;;;;10.57;7.28;;;15.70;99.90;;;;;;4989394;28;20127;-81
2021/07/09 03:30:43;;;;;;;9.25;6.95;;;15.70;99.90;;;;;;5022713;28;20390;-80
2021/07/09 03:33:10;;;;;;;13.25;8.35;;;15.70;99.90;;;;;;4990161;28;20038;-81
2021/07/09 03:35:36;;;;;;;9.27;6.85;;;15.70;99.90;;;;;;4990106;28;20037;-80
2021/07/09 03:38:02;;;;;;;11.98;7.88;;;15.70;99.90;;;;;;5006428;28;20034;-81
2021/07/09 03:40:28;;;;;;;12.93;7.70;;;15.70;99.90;;;;;;5007415;28;20035;-81
2021/07/09 03:42:54;;;;;;;10.10;7.20;;;15.60;99.90;;;;;;5022511;28;20038;-80
2021/07/09 03:45:19;;;;;;;10.07;7.05;;;15.60;99.90;;;;;;5022490;28;20049;-81
2021/07/09 03:47:46;;;;;;;9.45;6.50;;;15.60;99.90;;;;;;5005813;28;20050;-81
2021/07/09 03:50:12;;;;;;;14.18;7.63;;;15.60;99.90;;;;;;5005787;28;20070;-81
2021/07/09 03:52:38;;;;;;;12.02;7.90;;;15.60;99.90;;;;;;5022202;28;20034;-81
2021/07/09 03:55:06;;;;;;;10.40;7.40;;;15.60;99.90;;;;;;5024672;28;20085;-81
2021/07/09 03:57:31;;;;;;;12.98;8.15;;;15.60;99.90;;;;;;5025005;28;20022;-81
2021/07/09 03:59:57;;;;;;;11.43;6.82;;;15.60;99.90;;;;;;5008463;28;20470;-81
2021/07/09 04:02:22;;;;;;;10.90;7.00;;;15.50;99.90;;;;;;5008475;28;20086;-81
2021/07/09 04:04:48;;;;;;;10.65;6.75;;;15.60;99.90;;;;;;5008415;28;20040;-80
2021/07/09 04:07:14;;;;;;;11.63;6.80;;;15.60;99.90;;;;;;5024441;28;20055;-81
2021/07/09 04:09:39;;;;;;;10.63;6.75;;;15.60;99.90;;;;;;5024839;28;20030;-80
2021/07/09 04:12:05;;;;;;;11.23;7.40;;;15.50;99.90;;;;;;5025742;28;20030;-81
2021/07/09 04:14:31;;;;;;;10.75;6.57;;;15.60;99.90;;;;;;5024718;28;20052;-81
2021/07/09 04:16:57;;;;;;;10.43;6.72;;;15.50;99.90;;;;;;5007855;28;20030;-81
2021/07/09 04:19:23;;;;;;;12.05;7.30;;;15.50;99.90;;;;;;5008166;28;20041;-80
2021/07/09 04:21:48;;;;;;;10.80;7.32;;;15.50;99.90;;;;;;5024403;28;20041;-81
2021/07/09 04:24:14;;;;;;;10.70;7.32;;;15.50;99.90;;;;;;5024540;28;20037;-81
2021/07/09 04:26:40;;;;;;;10.43;7.05;;;15.50;99.90;;;;;;5024412;28;20053;-81
2021/07/09 04:29:05;;;;;;;11.57;6.90;;;15.50;99.90;;;;;;5040869;28;20042;-80
2021/07/09 04:31:31;;;;;;;10.07;7.78;;;15.60;99.90;;;;;;5040724;28;20076;-81
2021/07/09 04:33:57;;;;;;;13.65;8.00;;;15.70;99.90;;;;;;5025001;28;20034;-80
2021/07/09 04:36:23;;;;;;;10.95;7.38;;;15.70;99.90;;;;;;5025646;28;20030;-81
2021/07/09 04:38:48;;;;;;;10.90;7.85;;;15.70;99.90;;;;;;5025596;28;20026;-81
2021/07/09 04:41:14;;;;;;;12.60;7.60;;;15.70;99.90;;;;;;5040724;28;20037;-81
2021/07/09 04:43:40;;;;;;;12.32;8.13;;;15.70;99.90;;;;;;5024001;28;20033;-81
2021/07/09 04:46:06;;;;;;;10.52;7.75;;;15.70;99.90;;;;;;5024293;28;20045;-81
2021/07/09 04:48:32;;;;;;;10.18;7.38;;;15.70;99.90;;;;;;5007460;28;20103;-81
2021/07/09 04:50:58;;;;;;;12.73;7.88;;;15.70;99.90;;;;;;5024032;28;20036;-81
2021/07/09 04:53:23;;;;;;;16.90;9.85;;;15.70;99.90;;;;;;5024001;28;20069;-82
2021/07/09 04:55:49;;;;;;;13.75;7.88;;;15.60;99.90;;;;;;5033594;28;20026;-81
2021/07/09 04:58:15;;;;;;;10.90;7.93;;;15.60;99.90;;;;;;5023906;28;20064;-81
2021/07/09 05:00:40;;;;;;;12.77;8.10;;;15.60;99.90;;;;;;5023714;28;20041;-81
2021/07/09 05:03:06;;;;;;;12.90;8.35;;;15.70;99.90;;;;;;5040512;28;20034;-81
2021/07/09 05:05:32;;;;;;;13.32;8.05;;;15.70;99.90;;;;;;5024131;28;20116;-81
2021/07/09 05:07:57;;;;;;;14.05;8.20;;;15.70;99.90;;;;;;5023672;28;20034;-81
2021/07/09 05:10:23;;;;;;;13.77;7.93;;;15.70;99.90;;;;;;5024780;28;20041;-81
2021/07/09 05:12:49;;;;;;;14.63;8.85;;;15.70;99.90;;;;;;5022220;28;20076;-81
2021/07/09 05:15:14;;;;;;;11.73;8.93;;;15.70;99.90;;;;;;5010241;28;20552;-81
2021/07/09 05:17:41;;;;;;;12.52;8.38;;;15.70;99.90;;;;;;5023247;28;20026;-81
2021/07/09 05:20:07;;;;;;;14.13;9.23;;;15.70;99.90;;;;;;5021830;28;20057;-82
2021/07/09 05:22:33;;;;;;;11.32;8.20;;;15.70;99.90;;;;;;4990736;28;20052;-82
2021/07/09 05:24:58;;;;;;;12.15;8.93;;;15.70;99.90;;;;;;4990834;28;20161;-82
2021/07/09 05:27:28;;;;;;;10.82;6.43;;;15.70;99.90;;;;;;5016191;28;20049;-82
2021/07/09 05:29:53;;;;;;;17.08;10.27;;;15.90;99.90;;;;;;5010126;28;20036;-82
2021/07/09 05:32:27;;;;;;;18.05;11.32;;;16.20;99.90;;;;;;5022971;28;20042;-82
2021/07/09 05:34:55;;;;;;;20.77;11.95;;;16.40;99.90;;;;;;5006889;28;20138;-82
2021/07/09 05:37:22;;;;;;;21.10;11.82;;;16.40;99.90;;;;;;5006736;28;20032;-82
2021/07/09 05:39:48;;;;;;;20.17;12.68;;;16.60;99.90;;;;;;5007051;28;20069;-82
2021/07/09 05:42:14;;;;;;;26.10;13.85;;;16.70;99.90;;;;;;5023553;28;20033;-82
2021/07/09 05:44:40;;;;;;;22.55;14.00;;;16.90;99.90;;;;;;5007385;28;20029;-81
2021/07/09 05:47:06;;;;;;;25.17;14.20;;;16.90;99.90;;;;;;5006866;28;20045;-81
2021/07/09 05:49:32;;;;;;;16.70;11.43;;;17.00;99.90;;;;;;5023096;28;20077;-81
2021/07/09 05:51:57;;;;;;;14.48;9.25;;;17.00;99.90;;;;;;5026301;28;20053;-81
2021/07/09 05:54:23;;;;;;;17.77;11.40;;;17.20;99.90;;;;;;5027084;28;20050;-81
2021/07/09 05:56:49;;;;;;;16.52;9.43;;;17.20;99.90;;;;;;5027046;28;20502;-81
2021/07/09 05:59:14;;;;;;;14.15;9.48;;;17.40;99.90;;;;;;5010953;28;20116;-81
2021/07/09 06:01:40;;;;;;;15.25;10.15;;;17.60;99.90;;;;;;5010699;28;20442;-81
2021/07/09 06:04:06;;;;;;;20.52;12.07;;;17.80;99.90;;;;;;5028250;28;20407;-81
2021/07/09 06:06:31;;;;;;;18.90;11.05;;;17.80;99.90;;;;;;5010685;28;20094;-82
2021/07/09 06:08:57;;;;;;;15.10;9.77;;;17.90;99.90;;;;;;5010120;28;20048;-82
2021/07/09 06:11:25;;;;;;;14.73;9.63;;;18.10;99.90;;;;;;5026876;28;20030;-82
2021/07/09 06:13:52;;;;;;;12.10;8.60;;;18.10;99.90;;;;;;5028089;28;20401;-82
2021/07/09 06:16:18;;;;;;;13.27;8.68;;;18.20;99.90;;;;;;5026642;28;20058;-82
2021/07/09 06:18:44;;;;;;;17.08;9.90;;;18.30;99.90;;;;;;5026697;28;20022;-82
2021/07/09 06:21:09;;;;;;;10.90;8.02;;;18.50;99.90;;;;;;5026605;28;20029;-82
2021/07/09 06:23:35;;;;;;;13.73;9.93;;;18.60;99.90;;;;;;5010344;28;20528;-82
2021/07/09 06:26:01;;;;;;;10.98;7.43;;;18.70;99.90;;;;;;5010244;28;20034;-82
2021/07/09 06:28:26;;;;;;;12.82;8.48;;;18.90;99.90;;;;;;5007131;28;20045;-83
2021/07/09 06:30:52;;;;;;;15.70;10.55;;;19.00;99.90;;;;;;5009818;28;20474;-83
2021/07/09 06:33:18;;;;;;;13.65;9.82;;;19.10;99.90;;;;;;5009690;28;20038;-82
2021/07/09 06:35:44;;;;;;;15.38;9.40;;;19.20;99.90;;;;;;5026549;28;20041;-83
2021/07/09 06:38:09;;;;;;;13.07;8.85;;;19.10;99.90;;;;;;5009925;28;20034;-83
2021/07/09 06:40:35;;;;;;;11.82;7.25;;;19.20;99.90;;;;;;5009370;28;20041;-83
2021/07/09 06:43:01;;;;;;;11.57;7.78;;;19.10;99.90;;;;;;5009906;28;20490;-82
2021/07/09 06:45:27;;;;;;;9.02;6.90;;;19.00;99.90;;;;;;5026334;28;20261;-82
2021/07/09 06:47:52;;;;;;;15.25;10.18;;;19.00;99.90;;;;;;5027558;28;20041;-82
2021/07/09 06:50:18;;;;;;;11.27;7.60;;;19.10;99.90;;;;;;5013090;28;20041;-82
2021/07/09 06:52:44;;;;;;;9.02;6.50;;;19.20;99.90;;;;;;5013016;28;20469;-82
2021/07/09 06:55:11;;;;;;;9.85;6.45;;;19.50;99.90;;;;;;5029306;28;20024;-82
2021/07/09 06:57:38;;;;;;;9.23;5.88;;;19.60;99.90;;;;;;5013019;28;20033;-82
2021/07/09 07:00:06;;;;;;;9.65;5.75;;;19.80;99.90;;;;;;5012785;28;20033;-82
2021/07/09 07:02:33;;;;;;;8.77;5.90;;;19.90;99.90;;;;;;5028020;28;20060;-83
2021/07/09 07:05:00;;;;;;;9.30;6.13;;;19.60;99.90;;;;;;5012949;28;20030;-83
2021/07/09 07:07:27;;;;;;;8.20;5.18;;;19.70;99.90;;;;;;5012572;28;20386;-83
2021/07/09 07:09:52;;;;;;;7.70;5.38;;;20.00;99.90;;;;;;5028480;28;20726;-82
2021/07/09 07:12:18;;;;;;;9.00;5.80;;;19.90;99.90;;;;;;5012955;28;20029;-83
2021/07/09 07:14:47;;;;;;;10.65;6.47;;;20.00;99.90;;;;;;5012812;28;20030;-83
2021/07/09 07:17:14;;;;;;;11.10;6.45;;;20.10;99.90;;;;;;5012679;28;20036;-82
2021/07/09 07:19:40;;;;;;;9.02;5.90;;;20.20;99.90;;;;;;5029093;28;20033;-82
2021/07/09 07:22:06;;;;;;;7.43;4.20;;;20.30;99.90;;;;;;5012633;28;20120;-83
2021/07/09 07:24:31;;;;;;;6.65;4.60;;;20.80;99.90;;;;;;5029166;28;20080;-83
2021/07/09 07:26:57;;;;;;;9.65;6.18;;;20.90;99.90;;;;;;5028764;28;20108;-82
2021/07/09 07:29:24;;;;;;;6.93;4.50;;;20.80;99.90;;;;;;5012458;28;20069;-82
2021/07/09 07:31:51;;;;;;;8.73;5.88;;;20.70;99.90;;;;;;5012671;28;20057;-82
2021/07/09 07:34:17;;;;;;;6.47;4.93;;;20.70;99.90;;;;;;5028818;28;20064;-83
2021/07/09 07:36:42;;;;;;;4.38;3.33;;;20.80;99.90;;;;;;5028968;28;20017;-81
2021/07/09 07:39:08;;;;;;;3.08;1.75;;;20.60;99.90;;;;;;5028639;28;20458;-82
2021/07/09 07:41:35;;;;;;;3.35;1.30;;;20.50;99.90;;;;;;5028316;28;20465;-83
2021/07/09 07:44:00;;;;;;;2.78;1.17;;;20.70;99.90;;;;;;5011982;28;20045;-83
2021/07/09 07:46:49;;;;;;;2.45;1.13;;;20.50;99.90;;;;;;5028369;28;20021;-82
2021/07/09 07:49:15;;;;;;;2.58;1.10;;;20.70;99.90;;;;;;4949340;29;20130;-82
2021/07/09 07:51:41;;;;;;;2.50;1.00;;;20.50;99.90;;;;;;4965374;29;20043;-83
2021/07/09 07:54:07;;;;;;;2.42;0.70;;;20.60;99.90;;;;;;4948921;28;20031;-83
2021/07/09 07:56:33;;;;;;;1.80;0.70;;;21.10;99.90;;;;;;4949328;29;20051;-83
2021/07/09 07:58:59;;;;;;;2.42;0.90;;;21.00;99.90;;;;;;4965319;29;20070;-83
2021/07/09 08:01:25;;;;;;;3.30;1.13;;;20.90;99.90;;;;;;4933508;29;20081;-84
2021/07/09 08:03:51;;;;;;;3.67;1.48;;;20.90;99.90;;;;;;4965406;29;20063;-84
2021/07/09 08:06:17;;;;;;;2.03;0.80;;;20.90;99.90;;;;;;4949362;29;20050;-84
2021/07/09 08:08:43;;;;;;;1.50;0.60;;;21.30;99.90;;;;;;4934031;29;20039;-84
2021/07/09 08:11:10;;;;;;;2.38;0.57;;;21.70;99.90;;;;;;4949102;29;20035;-84
2021/07/09 08:13:35;;;;;;;1.55;0.60;;;21.50;99.90;;;;;;4932768;29;20039;-84
2021/07/09 08:16:01;;;;;;;1.77;0.77;;;21.80;99.90;;;;;;4933157;29;20063;-86
2021/07/09 08:18:28;;;;;;;2.00;0.98;;;21.50;99.90;;;;;;4964533;29;20050;-83
2021/07/09 08:20:54;;;;;;;2.85;1.38;;;21.40;99.90;;;;;;4933255;29;20043;-85
2021/07/09 08:23:20;;;;;;;1.67;0.70;;;21.60;99.90;;;;;;4949152;29;20027;-83
2021/07/09 08:25:45;;;;;;;1.90;1.10;;;21.80;99.90;;;;;;4955594;28;20037;-85
2021/07/09 08:28:14;;;;;;;1.88;0.60;;;21.50;99.90;;;;;;5011157;28;20101;-82
2021/07/09 08:30:41;;;;;;;3.03;0.70;;;21.70;99.90;;;;;;5045539;28;20432;-83
2021/07/09 08:33:07;;;;;;;1.55;0.60;;;21.50;99.90;;;;;;5027861;28;20037;-85
2021/07/09 08:35:33;;;;;;;2.45;0.77;;;21.50;99.90;;;;;;5045331;28;20018;-84
2021/07/09 08:37:58;;;;;;;2.58;0.60;;;21.30;99.90;;;;;;5011182;28;20044;-85
2021/07/09 08:40:24;;;;;;;1.73;0.77;;;21.50;99.90;;;;;;5011187;28;20029;-84
2021/07/09 08:42:50;;;;;;;2.88;0.73;;;21.60;99.90;;;;;;5027414;28;20029;-84
2021/07/09 08:45:15;;;;;;;2.00;0.70;;;21.50;99.90;;;;;;5027545;28;20052;-83
2021/07/09 08:47:41;;;;;;;2.35;1.13;;;21.70;99.90;;;;;;5038325;22;21972;-82
2021/07/09 08:50:07;;;;;;;2.05;0.85;;;21.20;99.90;;;;;;5047117;28;20044;-84
2021/07/09 08:52:36;;;;;;;2.55;0.80;;;21.50;99.90;;;;;;5047084;28;20029;-83
2021/07/09 08:55:03;;;;;;;2.13;1.10;;;21.60;99.90;;;;;;5047017;28;20453;-84
2021/07/09 08:57:29;;;;;;;2.55;0.93;;;21.40;99.90;;;;;;5030509;28;20044;-84
2021/07/09 08:59:55;;;;;;;2.75;0.88;;;21.50;99.90;;;;;;5047159;28;20373;-84
2021/07/09 09:02:26;;;;;;;1.85;1.00;;;21.60;99.90;;;;;;5063865;28;20064;-84
2021/07/09 09:04:53;;;;;;;1.38;0.70;;;21.70;99.90;;;;;;5030465;28;20029;-84
2021/07/09 09:07:19;;;;;;;2.30;0.90;;;21.80;99.90;;;;;;5046950;28;20040;-84
2021/07/09 09:09:44;;;;;;;2.65;1.00;;;21.80;99.90;;;;;;5030459;28;20067;-83
2021/07/09 09:12:14;;;;;;;1.80;0.90;;;21.60;99.90;;;;;;5046926;28;20100;-83
2021/07/09 09:14:51;;;;;;;3.38;1.33;;;21.80;99.90;;;;;;5046743;28;20029;-84
2021/07/09 09:17:23;;;;;;;6.80;2.72;;;21.90;99.90;;;;;;5030293;28;20033;-84
2021/07/09 09:20:13;;;;;;;4.60;3.28;;;21.90;99.90;;;;;;5047041;28;20036;-82
2021/07/09 09:22:48;;;;;;;5.18;3.13;;;21.90;99.90;;;;;;5015469;28;20057;-83
2021/07/09 09:25:18;;;;;;;4.65;2.78;;;21.90;99.90;;;;;;5047235;28;20085;-83
2021/07/09 09:27:55;;;;;;;;;;;22.00;99.90;;;;;;5034618;28;20405;-82
2021/07/09 09:30:21;;;;;;;4.30;3.05;;;22.00;99.90;;;;;;5050887;28;19915;-83
2021/07/09 09:32:48;;;;;;;5.38;3.92;;;22.10;99.90;;;;;;5068801;28;20060;-84
2021/07/09 09:35:37;;;;;;;5.93;3.67;;;21.80;99.90;;;;;;5050775;28;20096;-83
2021/07/09 09:38:07;;;;;;;3.75;2.63;;;21.70;99.90;;;;;;5034162;28;20075;-83
2021/07/09 09:40:35;;;;;;;6.22;4.22;;;22.40;99.90;;;;;;5049972;28;20223;-84
2021/07/09 09:43:19;;;;;;;8.60;3.63;;;22.00;99.90;;;;;;5067041;28;20033;-83
2021/07/09 09:46:09;;;;;;;4.43;3.05;;;22.20;99.90;;;;;;5033997;28;20033;-82
2021/07/09 09:48:46;;;;;;;5.13;3.15;;;22.60;99.90;;;;;;5033500;28;20416;-83
2021/07/09 09:51:31;;;;;;;6.65;4.72;;;22.90;99.90;;;;;;5067499;28;20044;-83
2021/07/09 09:53:59;;;;;;;6.30;4.30;;;22.50;99.90;;;;;;5033822;28;20032;-83
2021/07/09 09:56:40;;;;;;;5.63;3.97;;;22.00;99.90;;;;;;5050400;28;20025;-83
2021/07/09 09:59:25;;;;;;;6.32;4.05;;;21.70;99.90;;;;;;5050279;28;20040;-83
2021/07/09 10:01:57;;;;;;;5.95;3.47;;;21.40;99.90;;;;;;5050344;28;20076;-83
2021/07/09 10:04:25;;;;;;;4.65;3.55;;;22.10;99.90;;;;;;5050419;28;20124;-82
2021/07/09 10:06:51;;;;;;;9.00;5.70;;;22.80;99.90;;;;;;5050141;28;20431;-82
2021/07/09 10:09:17;;;;;;;7.15;4.95;;;22.50;99.90;;;;;;5033823;28;20040;-82
2021/07/09 10:11:43;;;;;;;6.72;4.93;;;22.40;99.90;;;;;;5033726;28;20029;-83
2021/07/09 10:14:15;;;;;;;6.72;5.18;;;22.60;99.90;;;;;;5049933;28;20107;-82
2021/07/09 10:16:43;;;;;;;8.05;5.82;;;22.30;99.90;;;;;;5049833;28;20060;-82
2021/07/09 10:19:11;;;;;;;6.85;5.13;;;21.90;99.90;;;;;;5033428;28;20040;-83
2021/07/09 10:21:38;;;;;;;8.43;6.30;;;22.00;99.90;;;;;;5049881;28;20029;-82
2021/07/09 10:24:08;;;;;;;8.88;6.80;;;22.20;99.90;;;;;;5050090;28;20060;-83
2021/07/09 10:26:44;;;;;;;9.57;6.88;;;21.70;99.90;;;;;;5034421;28;20060;-83
2021/07/09 10:29:16;;;;;;;8.07;6.10;;;21.60;99.90;;;;;;5033185;28;20045;-83
2021/07/09 10:31:44;;;;;;;7.25;5.53;;;21.50;99.90;;;;;;5033292;28;20129;-83
2021/07/09 10:34:34;;;;;;;7.20;4.38;;;22.60;99.90;;;;;;5033195;28;20094;-83
2021/07/09 10:37:02;;;;;;;4.43;3.67;;;23.40;99.90;;;;;;5049440;28;20025;-83
2021/07/09 10:39:36;;;;;;;8.23;6.25;;;23.70;99.90;;;;;;5032231;28;20044;-83
2021/07/09 10:42:17;;;;;;;9.02;5.65;;;22.70;99.90;;;;;;5032725;28;20043;-84
2021/07/09 10:45:03;;;;;;;7.53;5.10;;;22.60;99.90;;;;;;5049473;28;20295;-85
2021/07/09 10:47:52;;;;;;;9.07;6.07;;;22.40;99.90;;;;;;5049159;28;20052;-83
2021/07/09 10:50:37;;;;;;;6.38;5.00;;;22.40;99.90;;;;;;5049462;28;20048;-83
2021/07/09 10:53:13;;;;;;;3.85;2.70;;;22.80;99.90;;;;;;5049278;28;20037;-83
2021/07/09 10:55:52;;;;;;;5.88;3.65;;;23.40;99.90;;;;;;5032616;28;20060;-83
2021/07/09 10:58:42;;;;;;;7.45;4.45;;;22.70;99.90;;;;;;5049121;28;20064;-83
2021/07/09 11:01:07;;;;;;;2.50;2.00;;;22.70;99.90;;;;;;5032492;28;20029;-84
2021/07/09 11:03:39;;;;;;;4.10;2.15;;;23.30;99.90;;;;;;5065837;28;20080;-83
2021/07/09 11:06:19;;;;;;;6.38;3.80;;;23.30;99.90;;;;;;5049313;28;20098;-83
2021/07/09 11:08:51;;;;;;;7.90;6.03;;;23.30;99.90;;;;;;5048879;28;20041;-84
2021/07/09 11:11:30;;;;;;;6.35;3.53;;;22.80;99.90;;;;;;5049147;28;20053;-85
2021/07/09 11:14:01;;;;;;;6.63;4.72;;;23.00;99.90;;;;;;5048997;28;20033;-83
2021/07/09 11:16:30;;;;;;;7.93;5.10;;;22.40;99.90;;;;;;5032058;28;20051;-82
2021/07/09 11:19:03;;;;;;;6.65;4.72;;;21.90;99.90;;;;;;5032412;28;20056;-83
2021/07/09 11:21:32;;;;;;;5.93;4.88;;;21.90;99.90;;;;;;5065308;28;20029;-84
2021/07/09 11:24:04;;;;;;;5.45;4.70;;;22.30;99.90;;;;;;5048682;28;20130;-84
2021/07/09 11:26:41;;;;;;;7.30;4.40;;;22.50;99.90;;;;;;5048822;28;20033;-84
2021/07/09 11:29:27;;;;;;;7.30;4.82;;;22.30;99.90;;;;;;5032245;28;20208;-84
2021/07/09 11:31:58;;;;;;;5.30;3.83;;;22.00;99.90;;;;;;5048370;28;20036;-84
2021/07/09 11:34:26;;;;;;;6.15;4.63;;;22.30;99.90;;;;;;5048641;28;20101;-84
2021/07/09 11:36:53;;;;;;;6.88;4.78;;;22.50;99.90;;;;;;5032020;28;20045;-84
2021/07/09 11:39:23;;;;;;;8.95;5.15;;;22.20;99.90;;;;;;5031982;28;20117;-84
2021/07/09 11:42:12;;;;;;;5.50;4.35;;;22.50;99.90;;;;;;5032030;28;20284;-84
2021/07/09 11:44:44;;;;;;;4.20;2.85;;;23.20;99.90;;;;;;5048483;28;20033;-84
2021/07/09 11:49:41;;;;;;;5.18;4.68;;;23.60;99.90;;;;;;5062912;28;20056;-84
2021/07/09 11:52:12;;;;;;;6.55;5.95;;;23.50;99.90;;;;;;5048818;28;20045;-83
2021/07/09 11:54:45;;;;;;;11.20;7.15;;;23.10;99.90;;;;;;5049119;28;20059;-83
2021/07/09 11:57:13;;;;;;;8.70;7.60;;;21.90;99.90;;;;;;5045142;28;20095;-83
2021/07/09 11:59:40;;;;;;;7.90;5.80;;;21.80;99.90;;;;;;5028447;28;20056;-84
2021/07/09 12:02:19;;;;;;;7.55;5.95;;;22.20;99.90;;;;;;5028553;28;20440;-82
2021/07/09 12:04:49;;;;;;;9.25;5.43;;;22.30;99.90;;;;;;5012345;28;20032;-83
2021/07/09 12:07:25;;;;;;;8.38;6.03;;;22.00;99.90;;;;;;5012190;28;20065;-83
2021/07/09 12:10:13;;;;;;;6.90;4.38;;;22.30;99.90;;;;;;5012085;28;20045;-83
2021/07/09 12:12:53;;;;;;;3.90;2.28;;;22.90;99.90;;;;;;5011840;28;20083;-82
2021/07/09 12:15:28;;;;;;;5.30;2.40;;;23.20;99.90;;;;;;5011651;28;20056;-83
2021/07/09 12:17:59;;;;;;;4.38;3.03;;;23.60;99.90;;;;;;5027555;28;20125;-83
2021/07/09 12:20:27;;;;;;;4.75;3.60;;;23.70;99.90;;;;;;5011661;28;20056;-83
2021/07/09 12:23:14;;;;;;;5.88;4.05;;;23.10;99.90;;;;;;5011464;28;20496;-82
2021/07/09 12:25:42;;;;;;;6.03;4.22;;;23.00;99.90;;;;;;5011653;28;20033;-83
2021/07/09 12:28:10;;;;;;;4.75;3.22;;;23.70;99.90;;;;;;5011420;28;20065;-82
2021/07/09 12:30:48;;;;;;;6.65;4.70;;;24.20;99.90;;;;;;5011406;28;20029;-82
2021/07/09 12:33:16;;;;;;;6.15;4.22;;;24.30;99.90;;;;;;5011486;28;20021;-83
2021/07/09 12:35:42;;;;;;;6.88;4.43;;;24.00;99.90;;;;;;5011568;28;20125;-83
2021/07/09 12:38:13;;;;;;;10.18;4.28;;;23.50;99.90;;;;;;5011009;28;20029;-83
2021/07/09 12:40:44;;;;;;;5.72;4.05;;;23.80;99.90;;;;;;5027611;28;20034;-83
2021/07/09 12:43:11;;;;;;;3.33;2.33;;;24.20;99.90;;;;;;5027450;28;20193;-83
2021/07/09 12:45:37;;;;;;;7.50;4.03;;;24.40;99.90;;;;;;5011276;28;20513;-85
2021/07/09 12:48:03;;;;;;;5.18;2.67;;;23.90;99.90;;;;;;5044953;28;20049;-85
2021/07/09 12:50:33;;;;;;;4.75;2.60;;;24.40;99.90;;;;;;5027362;28;20036;-83
2021/07/09 12:53:19;;;;;;;3.97;2.80;;;24.70;99.90;;;;;;5011003;28;20481;-82